Weather observations for the past three days for
Rogers - Rogers Executive Airport - Carter Field
Metric (Imperial)
Date Time (cdt) Wind (kph) Vis. (km) Weather Sky Cond. Temperature (ºC) Relative Humidity Wind Chill (°C) Heat Index (°C) Pressure Precipitation (cm)
Air Dwpt 6 hour altimeter (cm) sea level (mb) 1 hr 3 hr 6 hr
Max. Min.
03 20:58 SE 7 16.09 Fair CLR 30.6 18.9 50% 32 76.1 1012.7
03 19:58 SE 13 16.09 Fair CLR 32.2 18.9 45% 34 76.05 1012.0
03 18:58 S 17 16.09 Fair CLR 34.4 18.3 37.2 34.4 38% 36 76.02 1011.7
03 17:58 S 15 16.09 A Few Clouds FEW070 35.6 18.9 37% 38 76.02 1011.6
03 16:58 SE 19 16.09 Fair CLR 35.6 18.9 37% 38 76.02 1011.5
03 15:58 SE 22 G 30 16.09 A Few Clouds FEW070 36.7 18.9 35% 39 76.05 1011.8
03 14:58 S 15 G 31 16.09 A Few Clouds FEW070 36.7 18.3 34% 38 76.1 1012.5
03 13:58 SE 19 16.09 Fair CLR 35 18.3 37% 36 76.12 1013.0
03 12:58 S 24 G 37 16.09 Fair CLR 35 18.9 35 24.4 39% 37 76.2 1013.8
03 11:58 S 22 16.09 Fair CLR 33.3 18.9 43% 35 76.25 1014.7
03 10:58 SW 20 G 31 16.09 Fair CLR 32.2 18.9 45% 34 76.3 1015.1
03 09:58 S 17 16.09 Fair CLR 30.6 19.4 51% 32 76.3 1015.3
03 08:58 S 13 16.09 Fair CLR 28.3 20.6 63% 30 76.35 1015.8
03 07:58 SE 13 16.09 Fair CLR 25.6 20.6 74% 27 76.35 1015.9
03 06:58 SE 9 16.09 Fair CLR 24.4 20.6 27.2 23.9 79% 25 76.3 1015.2
03 05:58 SE 9 16.09 Fair CLR 24.4 20 77% 25 76.28 1015.1
03 04:58 SE 9 16.09 Fair CLR 25 20 74% 26 76.28 1014.8
03 03:58 SE 7 16.09 Fair CLR 25 20 74% 26 76.28 1014.7
03 02:58 SE 9 16.09 Fair CLR 26.1 20 69% 27 76.25 1014.5
03 01:58 SE 6 16.09 Fair CLR 26.1 20 69% 27 76.25 1014.4
03 00:58 SE 9 16.09 Fair CLR 27.2 19.4 35 27.2 62% 29 76.25 1014.3
02 23:58 SE 7 16.09 Fair CLR 27.8 19.4 60% 29 76.23 1014.1
02 22:58 SE 11 16.09 Fair CLR 29.4 18.9 53% 31 76.23 1014.2
02 21:58 SE 15 14.48 Fair CLR 30.6 19.4 51% 32 76.23 1014.1
02 20:58 SE 13 16.09 Fair CLR 31.1 19.4 50% 33 76.17 1013.6
02 19:58 SE 13 16.09 Fair CLR 32.8 18.9 44% 34 76.12 1012.9
02 18:58 S 13 16.09 Fair CLR 35 17.2 38.3 34.4 35% 36 76.1 1012.7
02 17:58 S 13 16.09 Fair CLR 36.7 16.7 31% 37 76.12 1012.8
02 16:58 S 15 16.09 A Few Clouds FEW110 36.7 17.2 32% 38 76.15 1013.1
02 15:58 S 15 16.09 Mostly Cloudy SCT080 BKN100 36.7 16.7 31% 37 76.17 1013.4
02 14:58 Calm 16.09 A Few Clouds FEW100 35.6 17.2 34% 36 76.23 1014.2
02 13:58 Vrbl 9 16.09 Fair CLR 36.7 17.8 33% 38 76.3 1015.2
02 12:58 S 17 16.09 Fair CLR 35 18.3 35.6 23.9 37% 36 76.38 1016.1
02 11:58 S 17 16.09 Fair CLR 34.4 18.9 40% 36 76.43 1017.0
02 10:58 SW 13 16.09 Fair CLR 32.8 18.9 44% 34 76.48 1017.4
02 09:58 SW 13 16.09 Fair CLR 31.7 19.4 48% 33 76.48 1017.4
02 08:58 S 13 16.09 Fair CLR 29.4 20 57% 31 76.48 1017.6
02 07:58 SE 7 16.09 Fair CLR 26.7 20 67% 28 76.45 1017.4
02 06:58 SE 6 16.09 Fair CLR 24.4 20 27.8 24.4 77% 25 76.43 1016.8
02 05:58 S 9 16.09 Fair CLR 25 20 74% 26 76.38 1016.3
02 04:58 SE 11 16.09 Fair CLR 25.6 19.4 69% 27 76.35 1015.9
02 03:58 S 11 16.09 Fair CLR 25.6 19.4 69% 27 76.35 1015.9
02 02:58 SE 7 16.09 Fair CLR 26.1 19.4 67% 27 76.35 1015.9
02 01:58 SE 9 16.09 Fair CLR 26.7 19.4 64% 28 76.38 1016.0
02 00:58 S 13 16.09 Fair CLR 27.8 19.4 35 27.8 60% 29 76.35 1016.0
01 23:58 S 11 16.09 Fair CLR 28.3 18.9 57% 30 76.35 1015.7
01 22:58 SE 11 16.09 Fair CLR 28.9 18.9 55% 30 76.33 1015.5
01 21:58 SE 11 16.09 Fair CLR 30 18.3 49% 31 76.3 1015.1
01 20:58 SE 11 16.09 Fair CLR 30.6 17.2 45% 31 76.23 1014.4
01 19:58 SE 9 16.09 Fair CLR 32.8 16.7 38% 33 76.2 1014.0
01 18:58 SE 11 16.09 Fair CLR 35 16.7 37.2 33.3 34% 35 76.23 1014.2
01 17:58 S 15 16.09 Fair CLR 36.1 16.7 32% 37 76.25 1014.5
01 16:58 SE 19 G 33 16.09 A Few Clouds FEW085 36.1 16.7 32% 37 76.23 1014.2
01 15:58 S 13 16.09 A Few Clouds FEW075 37.2 17.2 31% 38 76.28 1014.7
01 14:58 E 17 16.09 Partly Cloudy SCT100 36.1 18.3 35% 38 76.33 1015.4
01 13:58 NE 11 16.09 Partly Cloudy SCT070 SCT085 36.1 18.3 35% 38 76.38 1016.1
01 12:58 Vrbl 6 16.09 Overcast BKN070 OVC090 33.9 17.2 35.6 23.9 37% 35 76.45 1017.2
01 11:58 Vrbl 7 G 26 16.09 Fair CLR 35 18.9 39% 37 76.5 1017.8
01 10:58 SW 17 16.09 Partly Cloudy SCT090 32.8 19.4 45% 35 76.53 1018.3
01 09:58 SW 20 16.09 Fair CLR 31.7 19.4 48% 33 76.53 1018.3
01 08:58 S 11 16.09 Fair CLR 30 20 55% 32 76.53 1018.4
01 07:58 S 7 14.48 Fair CLR 26.1 19.4 67% 27 76.5 1018.2
01 06:58 SE 6 16.09 Fair CLR 23.9 18.9 26.7 23.3 74% 25 76.45 1017.4
01 05:58 SE 7 16.09 Fair CLR 24.4 18.9 72% 25 76.43 1017.0
01 04:58 S 7 16.09 Partly Cloudy SCT095 25.6 18.3 64% 27 76.4 1016.5
01 03:58 S 7 16.09 Partly Cloudy SCT090 25.6 18.3 64% 27 76.4 1016.4
01 02:58 SE 7 16.09 Overcast OVC090 25.6 17.8 62% 27 76.38 1016.2
01 01:58 SE 9 16.09 Fair CLR 26.1 17.2 58% 27 76.38 1016.3
31 23:58 SE 9 16.09 Fair CLR 27.2 16.7 53% 28 76.35 1016.0
31 22:58 SE 9 16.09 Fair CLR 28.3 16.1 48% 29 76.35 1015.9
31 21:58 SE 13 16.09 Fair CLR 30 16.1 43% 30 76.35 1015.7
Date Time (cdt) Wind (kph) Vis. (km) Weather Sky Cond. Air Dwpt Max. Min. Relative Humidity Wind Chill (°C) Heat Index (°C) altimeter (cm) sea level (mb) 1 hr 3 hr 6 hr
6 hour
Temperature (ºC) Pressure Precipitation (cm)